Time;durP1;ratioP1;P1;durP2;ratioP2;P2;SDS_P1;SDS_P2;PMS_P1;PMS_P2;Temp;Humidity;BMP_temperature;BMP_pressure;BME280_temperature;BME280_humidity;BME280_pressure;Samples;Min_cycle;Max_cycle;Signal;HPM_P1;HPM_P2
2022/07/07 00:01:34;;;;;;;30.27;28.02;;;;;;;16.48;78.49;93448.25;5112215;28;20098;-41
2022/07/07 00:04:01;;;;;;;24.75;22.35;;;;;;;16.53;78.38;93452.84;5111958;28;20057;-41
2022/07/07 00:06:27;;;;;;;17.77;15.98;;;;;;;16.50;78.24;93444.94;5111599;28;20521;-41
2022/07/07 00:08:54;;;;;;;36.90;34.60;;;;;;;16.46;77.96;93445.31;5109434;28;20107;-46
2022/07/07 00:11:20;;;;;;;23.05;21.08;;;;;;;16.60;78.50;93443.59;5103041;28;20088;-42
2022/07/07 00:13:46;;;;;;;19.25;17.63;;;;;;;16.65;77.98;93450.91;5091561;28;20016;-42
2022/07/07 00:16:11;;;;;;;20.67;18.85;;;;;;;16.70;78.30;93451.22;5100710;28;20027;-41
2022/07/07 00:18:37;;;;;;;25.33;23.10;;;;;;;16.80;78.37;93455.44;5112232;28;20024;-42
2022/07/07 00:21:03;;;;;;;17.77;16.08;;;;;;;16.76;77.16;93457.97;5112063;28;20030;-41
2022/07/07 00:23:28;;;;;;;31.40;29.23;;;;;;;16.76;76.12;93443.28;5110614;28;20475;-41
2022/07/07 00:25:53;;;;;;;28.58;26.27;;;;;;;16.74;77.16;93468.94;5111721;28;20027;-42
2022/07/07 00:28:19;;;;;;;16.95;15.15;;;;;;;16.80;77.14;93463.06;5112138;28;20016;-41
2022/07/07 00:30:44;;;;;;;15.60;14.25;;;;;;;16.86;77.27;93463.50;5111745;28;20023;-42
2022/07/07 00:33:10;;;;;;;16.60;15.02;;;;;;;16.84;77.20;93461.31;5111637;28;20034;-41
2022/07/07 00:35:35;;;;;;;15.90;13.13;;;;;;;16.95;76.58;93460.72;5111566;28;20034;-41
2022/07/07 00:38:01;;;;;;;25.83;23.55;;;;;;;16.91;77.25;93462.47;5111258;28;20035;-41
2022/07/07 00:40:26;;;;;;;12.55;10.77;;;;;;;16.67;79.00;93464.28;5111836;28;20015;-42
2022/07/07 00:42:52;;;;;;;20.27;18.42;;;;;;;16.61;78.71;93461.78;5110611;28;20031;-41
2022/07/07 00:45:17;;;;;;;16.08;14.40;;;;;;;16.69;78.27;93450.47;5111087;28;20072;-41
2022/07/07 00:47:43;;;;;;;14.45;11.77;;;;;;;16.67;78.10;93453.84;5111149;28;20078;-42
2022/07/07 00:50:10;;;;;;;16.15;14.70;;;;;;;16.73;78.26;93450.03;5111234;28;20027;-41
2022/07/07 00:52:35;;;;;;;11.55;10.30;;;;;;;16.77;78.68;93445.47;5111209;28;20035;-42
2022/07/07 00:55:02;;;;;;;12.77;11.32;;;;;;;16.85;78.79;93442.53;5111529;28;20045;-41
2022/07/07 00:57:28;;;;;;;15.23;10.93;;;;;;;16.76;77.97;93432.88;5111113;28;20501;-41
2022/07/07 00:59:57;;;;;;;12.10;10.88;;;;;;;16.91;78.10;93445.75;5111022;28;20034;-41
2022/07/07 01:02:22;;;;;;;;;;;;;;;16.96;77.35;93439.84;5111601;28;20027;-39
2022/07/07 01:04:48;;;;;;;12.15;10.05;;;;;;;16.93;76.68;93440.31;5111100;28;19907;-40
2022/07/07 01:07:14;;;;;;;14.50;9.73;;;;;;;16.76;77.59;93440.50;5111052;28;20015;-40
2022/07/07 01:09:41;;;;;;;11.18;9.73;;;;;;;16.62;78.53;93420.69;5110913;28;20694;-41
2022/07/07 01:12:06;;;;;;;13.77;11.45;;;;;;;16.80;77.85;93435.19;5092758;28;20015;-42
2022/07/07 01:14:32;;;;;;;19.48;10.70;;;;;;;16.56;78.49;93437.00;5111152;28;20111;-44
2022/07/07 01:16:57;;;;;;;17.02;10.20;;;;;;;16.44;78.98;93439.59;5110767;28;20023;-44
2022/07/07 01:19:23;;;;;;;18.35;11.13;;;;;;;16.43;78.97;93443.00;5110811;28;20027;-43
2022/07/07 01:21:54;;;;;;;14.13;10.75;;;;;;;16.42;79.05;93436.69;5094232;28;20027;-45
2022/07/07 01:24:24;;;;;;;17.67;10.07;;;;;;;16.50;78.49;93442.13;5109704;28;20028;-43
2022/07/07 01:26:49;;;;;;;12.77;10.23;;;;;;;16.61;78.00;93445.03;5110324;28;20015;-43
2022/07/07 01:29:15;;;;;;;11.75;10.55;;;;;;;16.48;77.32;93428.75;5090292;28;20026;-45
2022/07/07 01:31:40;;;;;;;11.73;10.55;;;;;;;16.48;78.35;93448.25;5090696;28;20020;-44
2022/07/07 01:34:06;;;;;;;15.95;10.05;;;;;;;16.51;78.35;93449.91;5090591;28;20024;-44
2022/07/07 01:36:31;;;;;;;14.00;10.40;;;;;;;16.48;78.53;93445.47;5107446;28;20051;-43
2022/07/07 01:38:57;;;;;;;12.45;10.90;;;;;;;16.08;79.26;93425.81;5110505;28;20489;-44
2022/07/07 01:41:22;;;;;;;13.35;10.85;;;;;;;16.42;78.38;93442.25;5107626;28;20073;-45
2022/07/07 01:43:48;;;;;;;17.15;10.57;;;;;;;16.19;78.53;93444.75;5109844;28;20511;-43
2022/07/07 01:46:13;;;;;;;36.13;32.72;;;;;;;15.98;79.23;93436.25;5110058;28;20035;-44
2022/07/07 01:48:40;;;;;;;34.55;32.00;;;;;;;15.88;79.56;93446.59;5108805;28;20500;-44
2022/07/07 01:51:05;;;;;;;14.10;10.32;;;;;;;16.04;79.03;93456.16;5104663;28;20026;-45
2022/07/07 01:53:30;;;;;;;14.45;13.15;;;;;;;16.10;78.71;93455.88;5112099;28;20420;-43
2022/07/07 01:56:02;;;;;;;25.10;23.20;;;;;;;16.08;78.57;93448.09;5114469;28;20050;-43
2022/07/07 01:58:27;;;;;;;16.92;10.05;;;;;;;16.08;78.36;93444.59;5114620;28;20023;-43
2022/07/07 02:00:53;;;;;;;11.57;10.57;;;;;;;16.14;77.67;93447.81;5114539;28;20024;-43
2022/07/07 02:03:18;;;;;;;9.88;8.90;;;;;;;16.04;78.14;93449.88;5114635;28;20051;-43
2022/07/07 02:05:44;;;;;;;13.68;11.77;;;;;;;16.04;77.74;93452.66;5114609;28;20030;-44
2022/07/07 02:08:09;;;;;;;18.83;17.38;;;;;;;16.02;76.95;93449.72;5114720;28;20640;-43
2022/07/07 02:13:18;;;;;;;13.90;9.75;;;;;;;16.02;77.47;93452.50;5104110;28;20096;-43
2022/07/07 02:15:44;;;;;;;13.40;9.32;;;;;;;15.98;77.70;93458.50;5114279;28;20453;-43
2022/07/07 02:18:09;;;;;;;14.70;9.70;;;;;;;15.90;77.74;93458.63;5114335;28;20109;-43
2022/07/07 02:20:35;;;;;;;12.23;9.25;;;;;;;15.90;77.96;93460.69;5114471;28;20400;-44
2022/07/07 02:23:00;;;;;;;13.55;11.82;;;;;;;15.95;77.78;93454.09;5114255;28;20419;-43
2022/07/07 02:25:26;;;;;;;14.95;10.27;;;;;;;15.83;77.97;93453.94;5113754;28;20042;-44
2022/07/07 02:27:53;;;;;;;16.15;11.18;;;;;;;15.76;78.63;93449.25;5114339;28;20515;-43
2022/07/07 02:30:18;;;;;;;20.60;13.52;;;;;;;15.93;78.70;93456.75;5114240;28;20019;-42
2022/07/07 02:32:44;;;;;;;34.10;12.98;;;;;;;15.71;80.03;93452.28;5114175;28;20408;-42
2022/07/07 02:35:09;;;;;;;15.80;10.95;;;;;;;15.69;80.08;93457.72;5113247;28;20015;-43
2022/07/07 02:37:35;;;;;;;14.35;10.77;;;;;;;15.46;80.25;93457.34;5113595;28;20496;-43
2022/07/07 02:40:01;;;;;;;12.57;9.95;;;;;;;15.32;80.28;93456.22;5112392;28;20055;-42
2022/07/07 02:42:26;;;;;;;11.23;9.38;;;;;;;15.46;79.23;93462.91;5113269;28;20026;-44
2022/07/07 02:44:52;;;;;;;10.30;8.90;;;;;;;15.47;79.17;93461.59;5113193;28;20102;-43
2022/07/07 02:47:17;;;;;;;11.60;9.95;;;;;;;15.31;80.47;93460.34;5112976;28;20039;-43
2022/07/07 02:49:42;;;;;;;9.27;8.38;;;;;;;15.34;80.77;93459.16;5112005;28;20031;-44
2022/07/07 02:52:08;;;;;;;25.10;11.85;;;;;;;15.31;81.97;93460.34;5113101;28;20035;-43
2022/07/07 02:54:33;;;;;;;13.43;10.43;;;;;;;15.36;82.37;93462.09;5111837;28;20019;-44
2022/07/07 02:56:59;;;;;;;11.50;9.90;;;;;;;15.52;81.35;93463.38;5113278;28;20511;-44
2022/07/07 02:59:24;;;;;;;13.90;9.88;;;;;;;15.66;80.64;93467.94;5113290;28;20476;-43
2022/07/07 03:01:50;;;;;;;14.45;10.65;;;;;;;15.64;80.68;93467.81;5111249;28;20385;-42
2022/07/07 03:04:15;;;;;;;19.48;10.80;;;;;;;15.59;80.66;93468.09;5106660;28;20023;-43
2022/07/07 03:06:41;;;;;;;18.05;10.57;;;;;;;15.59;80.57;93459.75;5110748;28;20023;-44
2022/07/07 03:09:06;;;;;;;12.15;10.52;;;;;;;15.60;80.42;93463.97;5112007;28;20031;-42
2022/07/07 03:11:32;;;;;;;13.25;10.05;;;;;;;15.42;81.90;93470.94;5112557;28;20027;-42
2022/07/07 03:13:57;;;;;;;12.90;11.35;;;;;;;15.29;83.33;93465.75;5113106;28;20019;-42
2022/07/07 03:16:23;;;;;;;17.40;11.65;;;;;;;15.27;83.81;93460.03;5113061;28;20081;-44
2022/07/07 03:18:48;;;;;;;14.80;10.75;;;;;;;15.22;83.95;93466.59;5112929;28;20028;-45
2022/07/07 03:21:13;;;;;;;12.40;10.35;;;;;;;15.25;82.86;93462.63;5112948;28;20016;-43
2022/07/07 03:23:39;;;;;;;14.15;10.73;;;;;;;15.30;82.88;93458.88;5112992;28;20027;-45
2022/07/07 03:26:04;;;;;;;13.68;10.27;;;;;;;15.35;82.45;93457.88;5112865;28;20050;-42
2022/07/07 03:28:30;;;;;;;15.52;9.65;;;;;;;15.43;81.89;93441.78;5113238;28;20027;-42
2022/07/07 03:30:55;;;;;;;13.80;10.80;;;;;;;15.47;82.01;93453.97;5112902;28;20031;-43
2022/07/07 03:33:21;;;;;;;12.32;10.07;;;;;;;15.41;82.45;93463.88;5112827;28;20035;-40
2022/07/07 03:35:46;;;;;;;12.73;9.35;;;;;;;15.65;81.32;93468.53;5112691;28;20023;-41
2022/07/07 03:38:12;;;;;;;11.93;9.40;;;;;;;15.54;81.26;93466.31;5112891;28;20023;-40
2022/07/07 03:40:37;;;;;;;10.38;9.27;;;;;;;15.51;81.68;93473.75;5111773;28;20034;-39
2022/07/07 03:43:03;;;;;;;14.15;9.63;;;;;;;15.12;82.10;93419.25;5111832;28;20496;-39
2022/07/07 03:45:28;;;;;;;11.40;9.40;;;;;;;15.46;82.54;93460.88;5093575;28;20019;-40
2022/07/07 03:47:53;;;;;;;11.10;9.32;;;;;;;15.50;83.94;93466.00;5112315;28;20138;-40
2022/07/07 03:50:19;;;;;;;10.55;9.15;;;;;;;15.57;84.07;93465.88;5111892;28;20023;-39
2022/07/07 03:52:44;;;;;;;12.30;9.55;;;;;;;15.74;83.18;93465.75;5110635;28;20031;-38
2022/07/07 03:55:10;;;;;;;9.30;8.40;;;;;;;15.86;82.82;93475.03;5112382;28;20027;-38
2022/07/07 03:57:36;;;;;;;10.00;9.10;;;;;;;15.91;82.66;93470.50;5112541;28;20092;-39
2022/07/07 04:00:03;;;;;;;12.98;9.05;;;;;;;16.09;81.48;93471.84;5112213;28;20468;-39
2022/07/07 04:02:28;;;;;;;9.77;8.77;;;;;;;16.06;81.81;93467.47;5112658;28;20028;-40
2022/07/07 04:04:54;;;;;;;10.40;9.30;;;;;;;16.11;81.88;93463.66;5112216;28;20096;-40
2022/07/07 04:07:20;;;;;;;10.90;8.18;;;;;;;16.11;81.56;93449.75;5112507;28;20107;-39
2022/07/07 04:09:46;;;;;;;11.25;9.52;;;;;;;16.34;81.81;93466.00;5112530;28;20110;-39
2022/07/07 04:12:11;;;;;;;11.77;9.95;;;;;;;16.43;82.09;93466.03;5112017;28;20572;-40
2022/07/07 04:14:37;;;;;;;9.38;8.38;;;;;;;16.36;81.90;93446.66;5112049;28;20039;-40
2022/07/07 04:17:03;;;;;;;10.38;9.27;;;;;;;16.58;82.42;93470.59;5109490;28;20435;-40
2022/07/07 04:19:29;;;;;;;9.23;8.25;;;;;;;16.61;82.17;93472.22;5105210;28;20032;-42
2022/07/07 04:21:54;;;;;;;15.38;9.02;;;;;;;16.66;82.56;93479.53;5107239;28;20024;-40
2022/07/07 04:24:20;;;;;;;10.57;8.85;;;;;;;16.76;82.86;93473.94;5116539;27;20036;-40
2022/07/07 04:26:45;;;;;;;8.82;7.93;;;;;;;16.92;82.62;93470.25;5098128;28;20034;-40
2022/07/07 04:29:11;;;;;;;8.35;7.35;;;;;;;16.89;81.92;93460.25;5111982;28;20032;-42
2022/07/07 04:31:36;;;;;;;9.75;8.15;;;;;;;17.10;81.38;93482.69;5111649;28;20481;-44
2022/07/07 04:34:04;;;;;;;10.35;8.38;;;;;;;17.20;80.24;93480.59;5111497;28;20027;-44
2022/07/07 04:36:29;;;;;;;10.20;8.88;;;;;;;17.21;80.49;93486.94;5111836;28;20053;-43
2022/07/07 04:38:56;;;;;;;9.05;8.23;;;;;;;17.30;79.79;93483.38;5111596;28;20028;-43
2022/07/07 04:41:22;;;;;;;9.60;8.60;;;;;;;17.33;79.80;93482.19;5110917;28;20470;-42
2022/07/07 04:43:47;;;;;;;10.05;8.40;;;;;;;17.32;79.76;93486.31;5110090;28;20028;-41
2022/07/07 04:46:12;;;;;;;9.98;9.00;;;;;;;17.40;79.90;93484.06;5110679;28;20420;-41
2022/07/07 04:48:38;;;;;;;9.48;8.00;;;;;;;17.42;79.66;93489.78;5111395;28;20063;-41
2022/07/07 04:51:04;;;;;;;12.65;8.38;;;;;;;17.31;80.26;93487.63;5111357;28;20027;-40
2022/07/07 04:53:29;;;;;;;16.48;9.48;;;;;;;17.09;81.44;93489.59;5111260;28;20035;-40
2022/07/07 04:55:54;;;;;;;13.13;9.70;;;;;;;17.21;81.01;93492.50;5111400;28;20023;-40
2022/07/07 04:58:20;;;;;;;10.02;9.02;;;;;;;17.28;80.66;93491.59;5111407;28;20024;-43
2022/07/07 05:00:45;;;;;;;9.73;8.65;;;;;;;17.41;80.29;93488.34;5110512;28;20031;-42
2022/07/07 05:03:11;;;;;;;10.63;8.88;;;;;;;17.50;80.13;93487.56;5111373;28;20034;-42
2022/07/07 05:05:36;;;;;;;10.35;8.48;;;;;;;17.62;80.03;93487.69;5111329;28;20081;-42
2022/07/07 05:08:02;;;;;;;11.02;8.10;;;;;;;17.73;79.59;93495.44;5110898;28;20031;-43
2022/07/07 05:10:27;;;;;;;7.15;6.43;;;;;;;17.83;76.26;93494.06;5111190;28;20057;-43
2022/07/07 05:12:53;;;;;;;7.60;6.90;;;;;;;17.92;75.65;93496.06;5110125;28;20511;-42
2022/07/07 05:15:18;;;;;;;7.78;6.78;;;;;;;17.94;76.98;93495.47;5111189;28;20031;-42
2022/07/07 05:17:44;;;;;;;8.25;6.40;;;;;;;17.97;76.33;93488.69;5111093;28;20034;-42
2022/07/07 05:20:09;;;;;;;10.63;6.07;;;;;;;18.01;75.66;93498.09;5110853;28;20031;-45
2022/07/07 05:22:35;;;;;;;5.88;5.38;;;;;;;18.06;76.81;93491.41;5110945;28;20038;-44
2022/07/07 05:25:00;;;;;;;7.25;6.55;;;;;;;18.06;74.81;93485.84;5111175;28;20389;-43
2022/07/07 05:27:26;;;;;;;6.30;5.70;;;;;;;18.03;74.98;93492.63;5110407;28;20022;-43
2022/07/07 05:29:52;;;;;;;6.30;5.70;;;;;;;18.02;75.38;93477.19;5109908;28;20039;-43
2022/07/07 05:32:17;;;;;;;7.35;6.22;;;;;;;17.94;74.99;93471.06;5110611;28;20027;-44
2022/07/07 05:34:42;;;;;;;8.93;6.82;;;;;;;17.99;76.71;93489.56;5110545;28;20023;-43
2022/07/07 05:37:08;;;;;;;7.18;6.47;;;;;;;17.90;77.07;93465.22;5110521;28;20080;-43
2022/07/07 05:39:33;;;;;;;10.23;7.13;;;;;;;18.04;76.93;93487.78;5110530;28;20035;-44
2022/07/07 05:41:59;;;;;;;8.70;7.57;;;;;;;17.86;77.86;93490.09;5109035;28;20035;-41
2022/07/07 05:44:24;;;;;;;7.88;7.07;;;;;;;17.94;78.18;93492.69;5110513;28;20023;-42
2022/07/07 05:46:49;;;;;;;8.38;7.50;;;;;;;18.12;78.64;93486.25;5109993;28;20048;-41
2022/07/07 05:49:16;;;;;;;7.25;6.22;;;;;;;18.18;77.99;93486.66;5110143;28;20058;-41
2022/07/07 05:51:42;;;;;;;7.32;6.63;;;;;;;18.30;77.54;93486.72;5110455;28;20031;-42
2022/07/07 05:54:07;;;;;;;8.20;6.05;;;;;;;18.39;77.04;93482.38;5110573;28;20038;-42
2022/07/07 05:56:33;;;;;;;6.32;5.72;;;;;;;18.17;76.97;93443.25;5110361;28;20060;-42
2022/07/07 05:58:58;;;;;;;7.85;6.90;;;;;;;18.45;76.63;93491.22;5110585;28;20028;-42
2022/07/07 06:01:24;;;;;;;7.90;7.20;;;;;;;18.43;76.88;93497.34;5109517;28;20069;-43
2022/07/07 06:03:49;;;;;;;8.85;7.05;;;;;;;18.55;76.96;93497.47;5109923;28;20027;-41
2022/07/07 06:06:14;;;;;;;7.50;6.80;;;;;;;18.57;76.37;93494.78;5108403;28;20501;-42
2022/07/07 06:08:40;;;;;;;7.00;6.25;;;;;;;18.70;76.91;93494.25;5106790;28;20480;-42
2022/07/07 06:11:05;;;;;;;7.50;6.57;;;;;;;18.76;76.56;93491.84;5105020;28;20491;-41
2022/07/07 06:13:31;;;;;;;9.10;6.40;;;;;;;18.86;75.78;93493.22;5109169;28;20429;-41
2022/07/07 06:15:56;;;;;;;6.55;5.93;;;;;;;18.90;75.54;93489.97;5105521;28;20064;-41
2022/07/07 06:18:22;;;;;;;5.70;4.82;;;;;;;18.98;74.22;93493.28;5089797;28;20062;-41
2022/07/07 06:20:48;;;;;;;6.55;3.95;;;;;;;19.07;72.74;93494.50;5090159;28;20038;-41
2022/07/07 06:23:13;;;;;;;5.45;3.45;;;;;;;19.15;69.22;93487.34;5098596;28;20496;-40
2022/07/07 06:25:39;;;;;;;3.63;3.33;;;;;;;19.01;67.98;93466.88;5110201;28;20389;-40
2022/07/07 06:28:04;;;;;;;11.10;5.70;;;;;;;19.13;68.32;93494.88;5110298;28;20070;-43
2022/07/07 06:30:30;;;;;;;5.60;3.30;;;;;;;19.19;67.14;93496.00;5110399;28;20549;-44
2022/07/07 06:32:55;;;;;;;2.90;2.70;;;;;;;19.35;66.63;93493.50;5109390;28;20430;-44
2022/07/07 06:35:24;;;;;;;6.15;3.53;;;;;;;19.37;66.05;93499.97;5110318;28;20036;-41
2022/07/07 06:37:50;;;;;;;3.78;3.20;;;;;;;19.42;66.39;93490.50;5102554;28;20055;-44
2022/07/07 06:40:15;;;;;;;3.55;3.22;;;;;;;19.47;66.82;93494.25;5090709;28;20481;-44
2022/07/07 06:42:41;;;;;;;4.47;3.80;;;;;;;19.48;66.82;93495.72;5106189;28;20027;-43
2022/07/07 06:45:07;;;;;;;3.47;3.17;;;;;;;19.51;64.41;93486.84;5113069;28;20080;-42
2022/07/07 06:47:33;;;;;;;3.30;3.00;;;;;;;19.61;64.62;93489.53;5108531;28;20101;-44
2022/07/07 06:49:59;;;;;;;5.13;3.00;;;;;;;19.70;63.88;93494.31;5113613;28;20031;-45
2022/07/07 06:52:24;;;;;;;2.88;2.63;;;;;;;19.74;61.45;93497.34;5111783;28;20019;-42
2022/07/07 06:54:50;;;;;;;5.45;3.28;;;;;;;19.81;63.33;93496.38;5113896;28;20027;-44
2022/07/07 06:57:15;;;;;;;5.05;3.50;;;;;;;19.77;65.06;93484.94;5106470;28;20400;-43
2022/07/07 06:59:40;;;;;;;4.10;3.72;;;;;;;19.89;67.40;93494.06;5081083;28;20086;-45
2022/07/07 07:02:07;;;;;;;4.10;3.70;;;;;;;19.99;65.57;93491.84;5102169;28;20385;-41
2022/07/07 07:04:33;;;;;;;4.07;3.67;;;;;;;20.13;65.32;93500.38;5110640;28;20106;-43
2022/07/07 07:06:58;;;;;;;3.97;3.67;;;;;;;20.17;63.50;93501.34;5087844;28;20890;-42
2022/07/07 07:09:23;;;;;;;4.00;3.63;;;;;;;20.22;65.02;93497.50;5111828;28;20019;-42
2022/07/07 07:11:49;;;;;;;3.85;3.42;;;;;;;20.36;63.71;93492.69;5111502;28;20019;-44
2022/07/07 07:14:15;;;;;;;4.05;3.65;;;;;;;20.50;65.19;93497.66;5109385;28;20031;-41
2022/07/07 07:16:41;;;;;;;4.50;3.85;;;;;;;20.59;65.15;93497.53;5107092;28;20111;-42
2022/07/07 07:19:06;;;;;;;3.58;3.28;;;;;;;20.67;63.70;93494.44;5110984;28;20481;-44
2022/07/07 07:21:32;;;;;;;5.28;3.65;;;;;;;20.86;64.10;93496.94;5112158;28;20059;-41
2022/07/07 07:23:58;;;;;;;8.73;4.47;;;;;;;21.16;63.26;93503.59;5107668;28;20034;-41
2022/07/07 07:26:24;;;;;;;6.43;3.33;;;;;;;21.11;60.62;93466.13;5108745;28;20034;-41
2022/07/07 07:28:49;;;;;;;3.17;2.88;;;;;;;21.58;58.51;93478.53;5109090;28;20016;-42
2022/07/07 07:31:15;;;;;;;3.50;2.75;;;;;;;22.17;57.47;93495.72;5109197;28;20028;-42
2022/07/07 07:33:40;;;;;;;2.80;2.50;;;;;;;22.76;55.51;93488.19;5110165;28;20518;-42
2022/07/07 07:36:08;;;;;;;2.58;2.38;;;;;;;23.29;49.67;93497.81;5100928;28;20573;-41
2022/07/07 07:38:43;;;;;;;1.70;1.60;;;;;;;23.66;47.86;93497.47;5111230;28;20050;-41
2022/07/07 07:41:10;;;;;;;2.35;1.33;;;;;;;24.36;46.41;93491.50;5108006;28;20015;-44
2022/07/07 07:43:36;;;;;;;2.80;1.45;;;;;;;24.89;44.97;93500.13;5109243;28;20075;-44
2022/07/07 07:46:02;;;;;;;1.30;1.20;;;;;;;25.08;39.75;93462.81;5104919;28;20083;-42
2022/07/07 07:48:27;;;;;;;2.88;1.63;;;;;;;25.77;42.30;93492.44;5110351;28;20114;-45
2022/07/07 07:50:53;;;;;;;1.40;1.30;;;;;;;25.91;40.11;93489.41;5110601;28;20070;-43
2022/07/07 07:53:19;;;;;;;2.65;1.42;;;;;;;25.80;40.31;93496.03;5108824;28;20023;-43
2022/07/07 07:55:44;;;;;;;1.75;1.30;;;;;;;26.24;38.21;93490.00;5106778;28;20465;-43
2022/07/07 07:58:10;;;;;;;1.30;1.20;;;;;;;26.17;38.80;93485.47;5106147;28;20027;-41
2022/07/07 08:00:36;;;;;;;1.10;1.00;;;;;;;26.21;40.00;93482.06;5103435;28;20418;-44
2022/07/07 08:03:01;;;;;;;1.30;1.20;;;;;;;26.06;39.63;93466.66;5111171;28;20043;-42
2022/07/07 08:05:28;;;;;;;2.05;1.33;;;;;;;26.64;39.24;93485.03;5105897;28;20024;-45
2022/07/07 08:07:53;;;;;;;3.72;1.67;;;;;;;26.59;37.42;93488.38;5112010;28;20042;-43
2022/07/07 08:10:19;;;;;;;2.45;1.33;;;;;;;26.58;38.36;93484.81;5112506;28;20032;-43
2022/07/07 08:12:47;;;;;;;2.15;1.40;;;;;;;27.32;37.24;93488.75;5109149;28;20407;-43
2022/07/07 08:15:14;;;;;;;1.80;1.15;;;;;;;27.80;35.83;93490.31;5101466;28;20035;-44
2022/07/07 08:17:39;;;;;;;1.45;1.15;;;;;;;28.53;34.82;93491.09;5110133;28;20393;-43
2022/07/07 08:20:06;;;;;;;5.32;1.08;;;;;;;29.26;33.45;93493.06;5100957;28;20023;-42
2022/07/07 08:22:31;;;;;;;0.90;0.90;;;;;;;29.77;32.17;93490.06;5108792;28;20040;-45
2022/07/07 08:24:57;;;;;;;1.40;1.30;;;;;;;30.15;30.81;93498.03;5112041;28;20032;-43
2022/07/07 08:27:22;;;;;;;1.17;1.08;;;;;;;30.73;32.03;93496.44;5108840;28;20408;-42
2022/07/07 08:29:49;;;;;;;4.47;1.25;;;;;;;31.26;29.83;93498.13;5100920;28;20594;-44
2022/07/07 08:32:15;;;;;;;1.98;1.20;;;;;;;31.44;27.52;93487.06;5102067;28;20027;-43
2022/07/07 08:34:41;;;;;;;1.40;1.30;;;;;;;30.87;27.94;93493.88;5102539;28;20027;-44
2022/07/07 08:37:07;;;;;;;1.40;1.30;;;;;;;31.00;30.24;93495.53;5105934;28;20090;-43
2022/07/07 08:39:32;;;;;;;0.95;0.95;;;;;;;31.80;28.86;93501.94;5107711;28;20469;-43
2022/07/07 08:41:58;;;;;;;3.50;0.98;;;;;;;32.66;26.90;93488.16;5103404;28;20038;-43
2022/07/07 08:44:25;;;;;;;1.98;0.93;;;;;;;33.51;26.87;93494.84;5080841;28;20039;-43
2022/07/07 08:46:50;;;;;;;2.15;1.40;;;;;;;34.28;26.73;93507.63;5089911;28;20048;-43
2022/07/07 08:49:16;;;;;;;1.20;1.08;;;;;;;33.68;26.59;93519.31;5085918;28;20398;-43
2022/07/07 08:51:42;;;;;;;4.03;1.50;;;;;;;33.06;27.65;93522.28;5077350;28;20421;-43
2022/07/07 08:54:17;;;;;;;2.78;1.60;;;;;;;33.44;26.90;93516.22;5075547;28;20030;-42
2022/07/07 08:56:43;;;;;;;2.97;1.10;;;;;;;33.58;27.05;93517.09;5082464;28;20103;-43
2022/07/07 08:59:13;;;;;;;1.23;1.13;;;;;;;33.77;27.44;93515.09;5074415;28;20021;-44
2022/07/07 09:01:39;;;;;;;1.30;1.20;;;;;;;33.77;28.94;93523.69;5082695;28;20412;-43
2022/07/07 09:04:05;;;;;;;1.50;1.08;;;;;;;34.26;27.70;93525.50;5082196;28;20024;-43
2022/07/07 09:06:31;;;;;;;3.33;1.52;;;;;;;34.65;24.92;93523.63;5090144;28;20081;-44
2022/07/07 09:08:57;;;;;;;1.60;1.40;;;;;;;34.20;25.18;93525.47;5089714;28;20016;-45
2022/07/07 09:11:25;;;;;;;1.38;1.27;;;;;;;34.68;26.90;93525.06;5089965;28;20035;-46
2022/07/07 09:13:51;;;;;;;;;;;;;;;35.21;25.44;93522.44;5082514;28;20036;-43
2022/07/07 09:16:17;;;;;;;3.80;1.30;;;;;;;35.05;25.80;93526.69;5087248;28;19965;-47
2022/07/07 09:18:46;;;;;;;1.30;1.20;;;;;;;35.76;25.81;93526.84;5089104;28;20081;-45
2022/07/07 09:21:29;;;;;;;3.70;1.42;;;;;;;35.84;25.09;93523.28;5090848;28;20535;-47
2022/07/07 09:23:57;;;;;;;2.03;1.60;;;;;;;35.73;25.37;93528.31;5090656;28;20059;-45
2022/07/07 09:26:41;;;;;;;1.02;1.00;;;;;;;36.10;24.83;93524.03;5090691;28;20028;-44
2022/07/07 09:29:10;;;;;;;1.80;1.25;;;;;;;36.45;24.66;93519.66;5089923;28;20024;-44
2022/07/07 09:32:02;;;;;;;4.25;1.15;;;;;;;36.23;24.49;93516.09;5089105;28;20062;-45
2022/07/07 09:34:29;;;;;;;1.92;1.25;;;;;;;35.36;24.07;93500.94;5088882;28;20020;-48
2022/07/07 09:39:49;;;;;;;2.22;1.27;;;;;;;35.09;26.12;93505.88;5088856;28;20034;-42
2022/07/07 09:42:18;;;;;;;1.10;1.00;;;;;;;34.46;23.88;93507.72;5088654;28;20083;-44
2022/07/07 09:44:45;;;;;;;1.35;1.25;;;;;;;34.13;25.12;93494.63;5089071;28;20039;-44
2022/07/07 09:47:10;;;;;;;1.35;0.90;;;;;;;33.16;29.45;93510.22;5099335;28;20051;-44
2022/07/07 09:49:59;;;;;;;2.17;1.00;;;;;;;32.71;26.32;93503.97;5110742;28;20019;-42
2022/07/07 09:52:24;;;;;;;1.30;1.20;;;;;;;32.60;28.93;93504.53;5109774;28;20043;-43
2022/07/07 09:54:50;;;;;;;1.30;1.20;;;;;;;32.64;27.68;93511.00;5109210;28;20031;-48
2022/07/07 09:57:18;;;;;;;3.10;0.98;;;;;;;32.66;29.60;93513.91;5109232;28;20107;-44
2022/07/07 09:59:46;;;;;;;1.10;1.10;;;;;;;32.85;27.03;93512.00;5109314;28;20027;-44
2022/07/07 10:02:22;;;;;;;1.10;1.00;;;;;;;32.88;27.71;93519.91;5110462;28;20023;-45
2022/07/07 10:04:50;;;;;;;1.20;1.10;;;;;;;32.68;28.93;93513.22;5110255;28;20028;-44
2022/07/07 10:07:23;;;;;;;1.40;1.17;;;;;;;32.80;27.19;93511.22;5110332;28;20022;-46
2022/07/07 10:09:52;;;;;;;2.28;1.20;;;;;;;32.84;30.08;93511.28;5093210;28;20036;-44
2022/07/07 10:12:21;;;;;;;3.90;1.42;;;;;;;33.04;26.57;93507.22;5101364;28;20031;-44
2022/07/07 10:14:49;;;;;;;2.55;1.55;;;;;;;33.08;27.88;93501.53;5102794;28;20039;-45
2022/07/07 10:17:16;;;;;;;3.67;0.98;;;;;;;32.88;26.40;93494.16;5114426;28;20016;-42
2022/07/07 10:19:43;;;;;;;2.35;1.23;;;;;;;32.44;29.22;93504.31;5114260;28;20504;-43
2022/07/07 10:22:11;;;;;;;1.65;1.40;;;;;;;32.56;29.72;93493.78;5113935;28;20030;-42
2022/07/07 10:24:38;;;;;;;1.23;1.05;;;;;;;32.56;28.84;93502.34;5095788;28;20076;-43
2022/07/07 10:27:04;;;;;;;1.50;1.20;;;;;;;32.32;29.22;93502.00;5114426;28;20032;-42
2022/07/07 10:29:49;;;;;;;1.98;1.27;;;;;;;32.71;30.36;93509.69;5114208;28;20027;-44
2022/07/07 10:32:18;;;;;;;2.10;1.52;;;;;;;32.39;30.00;93505.66;5101186;28;20031;-46
2022/07/07 10:34:56;;;;;;;2.10;1.20;;;;;;;32.37;29.05;93500.66;5105345;28;20039;-43
2022/07/07 10:37:23;;;;;;;1.20;1.10;;;;;;;32.20;28.20;93498.97;5113947;28;20035;-47
2022/07/07 10:39:54;;;;;;;1.35;1.10;;;;;;;31.76;30.72;93501.13;5114125;28;20032;-44
2022/07/07 10:42:47;;;;;;;1.17;1.08;;;;;;;32.01;29.27;93491.56;5114163;28;20509;-43
2022/07/07 10:45:14;;;;;;;15.45;1.65;;;;;;;31.82;29.73;93496.25;5097464;28;20030;-44
2022/07/07 10:47:39;;;;;;;1.00;1.00;;;;;;;31.39;30.51;93491.97;5108612;28;20055;-43
2022/07/07 10:50:25;;;;;;;2.20;1.50;;;;;;;31.41;33.72;93491.28;5112239;28;20020;-44
2022/07/07 10:52:51;;;;;;;2.33;0.98;;;;;;;31.57;32.68;93488.72;5101299;28;20070;-44
2022/07/07 10:55:17;;;;;;;1.33;1.23;;;;;;;31.92;35.85;93484.97;5100040;28;20114;-43
2022/07/07 10:57:44;;;;;;;3.15;0.95;;;;;;;32.30;31.22;93486.94;5095568;28;20148;-45
2022/07/07 11:00:27;;;;;;;1.40;1.30;;;;;;;32.23;29.09;93483.28;5113603;28;20400;-45
2022/07/07 11:03:09;;;;;;;1.35;1.25;;;;;;;32.26;32.26;93487.63;5107061;28;20616;-43
2022/07/07 11:05:36;;;;;;;2.15;1.58;;;;;;;31.83;29.28;93474.84;5101889;28;20070;-42
2022/07/07 11:08:10;;;;;;;5.13;1.45;;;;;;;31.41;31.79;93477.75;5112117;28;20051;-45
2022/07/07 11:10:39;;;;;;;1.70;1.60;;;;;;;31.34;31.37;93481.16;5107088;28;20094;-44
2022/07/07 11:13:16;;;;;;;1.50;1.38;;;;;;;31.49;32.89;93479.31;5107188;28;20032;-45
2022/07/07 11:15:42;;;;;;;1.42;1.33;;;;;;;31.39;32.81;93479.81;5105184;28;20504;-45
2022/07/07 11:18:13;;;;;;;3.40;1.60;;;;;;;31.18;32.66;93486.59;5106073;28;20123;-43
2022/07/07 11:20:55;;;;;;;3.03;1.63;;;;;;;31.21;33.02;93468.09;5101163;28;20035;-43
2022/07/07 11:23:21;;;;;;;1.63;1.52;;;;;;;31.40;34.53;93482.00;5104860;28;20028;-43
2022/07/07 11:25:47;;;;;;;1.55;1.45;;;;;;;31.22;30.80;93470.28;5104869;28;20038;-44
2022/07/07 11:28:13;;;;;;;1.70;1.48;;;;;;;31.04;32.72;93446.41;5105117;28;20051;-45
2022/07/07 11:30:40;;;;;;;1.70;1.50;;;;;;;30.70;34.08;93469.28;5112921;28;20038;-43
2022/07/07 11:33:06;;;;;;;2.28;1.27;;;;;;;30.06;32.19;93457.25;5112893;28;20133;-44